Time;durP1;ratioP1;P1;durP2;ratioP2;P2;SDS_P1;SDS_P2;PMS_P1;PMS_P2;Temp;Humidity;BMP_temperature;BMP_pressure;BME280_temperature;BME280_humidity;BME280_pressure;Samples;Min_cycle;Max_cycle;Signal;HPM_P1;HPM_P2
2023/10/15 00:00:59;;;;;;;6.37;1.70;;;9.50;99.90;;;;;;5106197;28;20213;-66
2023/10/15 00:03:26;;;;;;;9.47;1.77;;;9.50;99.90;;;;;;5106684;28;20561;-66
2023/10/15 00:05:52;;;;;;;8.43;2.60;;;9.50;99.90;;;;;;5106457;28;20296;-66
2023/10/15 00:08:20;;;;;;;3.53;1.63;;;9.50;99.90;;;;;;5106477;28;20206;-66
2023/10/15 00:10:48;;;;;;;5.60;2.27;;;9.40;99.90;;;;;;5105968;28;20763;-66
2023/10/15 00:13:15;;;;;;;6.73;2.03;;;9.40;99.90;;;;;;5105974;28;20232;-66
2023/10/15 00:15:43;;;;;;;9.40;2.07;;;9.30;99.90;;;;;;5103284;28;20297;-66
2023/10/15 00:18:11;;;;;;;5.63;1.90;;;9.40;99.90;;;;;;5085697;28;20202;-65
2023/10/15 00:20:40;;;;;;;8.10;1.90;;;9.40;99.90;;;;;;5085865;28;20307;-65
2023/10/15 00:23:09;;;;;;;6.10;1.97;;;9.30;99.90;;;;;;5085674;28;20251;-65
2023/10/15 00:25:41;;;;;;;5.17;1.73;;;9.30;99.90;;;;;;5085595;28;20234;-65
2023/10/15 00:28:11;;;;;;;4.50;1.60;;;9.30;99.90;;;;;;5101836;28;20264;-67
2023/10/15 00:30:39;;;;;;;5.47;1.53;;;9.30;99.90;;;;;;5105950;28;20232;-67
2023/10/15 00:33:07;;;;;;;7.60;1.97;;;9.30;99.90;;;;;;5105765;28;20210;-66
2023/10/15 00:35:34;;;;;;;8.67;2.00;;;9.20;99.90;;;;;;5106031;28;20244;-66
2023/10/15 00:38:07;;;;;;;5.47;1.90;;;9.30;99.90;;;;;;5106315;28;20717;-65
2023/10/15 00:40:37;;;;;;;9.47;1.90;;;9.20;99.90;;;;;;5106465;28;20413;-65
2023/10/15 00:43:04;;;;;;;6.43;2.10;;;9.30;99.90;;;;;;5105953;28;20310;-66
2023/10/15 00:45:39;;;;;;;4.83;1.97;;;9.30;99.90;;;;;;5105756;28;20255;-64
2023/10/15 00:48:11;;;;;;;2.90;1.43;;;9.30;99.90;;;;;;5105867;28;20194;-66
2023/10/15 00:50:40;;;;;;;9.37;2.20;;;9.20;99.90;;;;;;5105952;28;20197;-67
2023/10/15 00:53:21;;;;;;;6.67;1.73;;;9.20;99.90;;;;;;5105964;28;20237;-67
2023/10/15 00:55:50;;;;;;;5.67;2.30;;;9.20;99.90;;;;;;5106049;28;20201;-67
2023/10/15 00:58:21;;;;;;;7.77;2.10;;;9.10;99.90;;;;;;5105698;28;20293;-64
2023/10/15 01:00:53;;;;;;;5.40;1.77;;;9.10;99.90;;;;;;5086192;28;20668;-65
2023/10/15 01:03:30;;;;;;;8.67;1.70;;;9.20;99.90;;;;;;5085174;28;20202;-65
2023/10/15 01:06:04;;;;;;;7.07;1.93;;;9.10;99.90;;;;;;5085108;28;20202;-64
2023/10/15 01:08:35;;;;;;;4.60;1.83;;;9.10;99.90;;;;;;5084710;28;20238;-67
2023/10/15 01:11:09;;;;;;;9.47;1.90;;;9.00;99.90;;;;;;5084904;28;20317;-67
2023/10/15 01:13:37;;;;;;;8.83;2.13;;;9.00;99.90;;;;;;5084813;28;20233;-67
2023/10/15 01:16:08;;;;;;;6.80;2.10;;;9.00;99.90;;;;;;5102163;28;20296;-66
2023/10/15 01:18:36;;;;;;;3.90;1.57;;;9.00;99.90;;;;;;5105544;28;20569;-67
2023/10/15 01:21:04;;;;;;;8.93;1.87;;;9.00;99.90;;;;;;5105254;28;20327;-67
2023/10/15 01:23:37;;;;;;;9.20;2.60;;;9.00;99.90;;;;;;5096272;28;20673;-64
2023/10/15 01:26:10;;;;;;;5.90;1.93;;;9.00;99.90;;;;;;5085266;28;20291;-64
2023/10/15 01:28:37;;;;;;;6.40;2.07;;;8.90;99.90;;;;;;5088852;28;20240;-64
2023/10/15 01:31:06;;;;;;;8.47;2.47;;;8.90;99.90;;;;;;5088639;28;20206;-64
2023/10/15 01:33:45;;;;;;;7.90;1.80;;;8.80;99.90;;;;;;5088810;28;20264;-65
2023/10/15 01:36:16;;;;;;;6.53;1.70;;;8.80;99.90;;;;;;5088310;28;20246;-65
2023/10/15 01:38:44;;;;;;;5.97;1.87;;;8.90;99.90;;;;;;5088726;28;20226;-65
2023/10/15 01:41:13;;;;;;;6.03;1.93;;;8.90;99.90;;;;;;5088666;28;20273;-65
2023/10/15 01:43:41;;;;;;;6.70;1.80;;;8.90;99.90;;;;;;5107147;28;20198;-65
2023/10/15 01:46:10;;;;;;;5.20;1.80;;;8.80;99.90;;;;;;5109105;28;20220;-64
2023/10/15 01:48:40;;;;;;;8.60;2.23;;;8.70;99.90;;;;;;5109309;28;20225;-64
2023/10/15 01:51:07;;;;;;;6.47;1.80;;;8.80;99.90;;;;;;5109642;27;20199;-65
2023/10/15 01:53:36;;;;;;;7.53;2.40;;;8.80;99.90;;;;;;5109923;28;20296;-65
2023/10/15 01:56:03;;;;;;;8.00;2.10;;;8.80;99.90;;;;;;5109857;28;20210;-65
2023/10/15 01:58:32;;;;;;;6.57;2.20;;;8.80;99.90;;;;;;5109453;27;20267;-65
2023/10/15 02:01:08;;;;;;;7.73;1.80;;;8.70;99.90;;;;;;5109036;28;20277;-65
2023/10/15 02:03:37;;;;;;;7.00;2.10;;;8.70;99.90;;;;;;5109030;28;20225;-65
2023/10/15 02:06:08;;;;;;;5.90;2.00;;;8.70;99.90;;;;;;5108690;28;20703;-65
2023/10/15 02:08:37;;;;;;;4.17;1.97;;;8.70;99.90;;;;;;5108646;28;20256;-65
2023/10/15 02:11:15;;;;;;;4.53;1.70;;;8.70;99.90;;;;;;5108102;28;20217;-65
2023/10/15 02:13:45;;;;;;;6.93;2.00;;;8.60;99.90;;;;;;5108257;27;20307;-66
2023/10/15 02:16:15;;;;;;;6.37;1.70;;;8.60;99.90;;;;;;5108175;28;20216;-65
2023/10/15 02:18:46;;;;;;;7.43;2.10;;;8.60;99.90;;;;;;5107896;28;20719;-66
2023/10/15 02:21:16;;;;;;;4.67;1.97;;;8.60;99.90;;;;;;5108402;28;20194;-65
2023/10/15 02:23:49;;;;;;;6.77;1.80;;;8.70;99.90;;;;;;5107901;28;20792;-66
2023/10/15 02:26:18;;;;;;;10.07;1.70;;;8.70;99.90;;;;;;5098689;28;20202;-65
2023/10/15 02:28:53;;;;;;;8.27;2.33;;;8.70;99.90;;;;;;5088251;28;20217;-66
2023/10/15 02:31:22;;;;;;;6.57;2.10;;;8.70;99.90;;;;;;5087696;28;20670;-65
2023/10/15 02:33:50;;;;;;;4.30;1.80;;;8.70;99.90;;;;;;5087565;28;20775;-65
2023/10/15 02:36:17;;;;;;;8.53;2.07;;;8.70;99.90;;;;;;5087863;28;20631;-65
2023/10/15 02:38:54;;;;;;;5.40;2.03;;;8.70;99.90;;;;;;5095271;28;20213;-65
2023/10/15 02:41:22;;;;;;;6.00;2.53;;;8.70;99.90;;;;;;5108184;28;20640;-66
2023/10/15 02:43:53;;;;;;;8.90;2.10;;;8.70;99.90;;;;;;5107704;28;20739;-65
2023/10/15 02:46:22;;;;;;;6.53;2.33;;;8.70;99.90;;;;;;5107928;28;20241;-65
2023/10/15 02:48:53;;;;;;;6.77;1.90;;;8.70;99.90;;;;;;5107317;28;21099;-65
2023/10/15 02:51:23;;;;;;;7.20;2.17;;;8.60;99.90;;;;;;5107634;28;20874;-65
2023/10/15 02:53:54;;;;;;;3.43;1.73;;;8.60;99.90;;;;;;5107812;28;20335;-65
2023/10/15 02:56:22;;;;;;;7.90;2.00;;;8.50;99.90;;;;;;5107501;28;20190;-65
2023/10/15 02:58:54;;;;;;;5.47;1.90;;;8.60;99.90;;;;;;5107631;28;20676;-65
2023/10/15 03:01:22;;;;;;;6.47;1.67;;;8.60;99.90;;;;;;5107566;28;20199;-65
2023/10/15 03:03:52;;;;;;;8.40;2.03;;;8.50;99.90;;;;;;5107898;28;20297;-65
2023/10/15 03:06:24;;;;;;;11.03;1.87;;;8.50;99.90;;;;;;5108193;28;20234;-65
2023/10/15 03:08:52;;;;;;;6.77;2.10;;;8.50;99.90;;;;;;5088272;28;20318;-65
2023/10/15 03:11:21;;;;;;;7.27;1.70;;;8.40;99.90;;;;;;5087114;28;20296;-65
2023/10/15 03:13:54;;;;;;;5.50;2.00;;;8.30;99.90;;;;;;5087584;28;20275;-65
2023/10/15 03:16:22;;;;;;;9.13;2.00;;;8.30;99.90;;;;;;5098807;28;20255;-64
2023/10/15 03:18:50;;;;;;;10.67;1.97;;;8.20;99.90;;;;;;5106756;28;20648;-65
2023/10/15 03:21:24;;;;;;;8.00;2.17;;;8.30;99.90;;;;;;5106885;28;20743;-65
2023/10/15 03:23:52;;;;;;;4.67;1.77;;;8.30;99.90;;;;;;5106951;28;20752;-65
2023/10/15 03:26:22;;;;;;;9.23;2.00;;;8.30;99.90;;;;;;5107127;28;20209;-65
2023/10/15 03:28:58;;;;;;;6.03;1.90;;;8.30;99.90;;;;;;5106907;28;20210;-65
2023/10/15 03:31:27;;;;;;;11.40;2.30;;;8.30;99.90;;;;;;5106825;28;20193;-65
2023/10/15 03:36:44;;;;;;;5.70;2.00;;;8.40;99.90;;;;;;5085284;28;20249;-65
2023/10/15 03:39:15;;;;;;;3.67;2.10;;;8.40;99.90;;;;;;5086802;28;20516;-65
2023/10/15 03:41:43;;;;;;;5.03;1.70;;;8.40;99.90;;;;;;5086978;28;20199;-65
2023/10/15 03:44:11;;;;;;;6.83;2.03;;;8.40;99.90;;;;;;5086691;28;20210;-65
2023/10/15 03:46:38;;;;;;;8.53;1.97;;;8.40;99.90;;;;;;5096343;28;20210;-65
2023/10/15 03:49:07;;;;;;;5.83;1.77;;;8.30;99.90;;;;;;5091366;28;20298;-65
2023/10/15 03:51:40;;;;;;;3.97;1.73;;;8.30;99.90;;;;;;5086669;28;20207;-65
2023/10/15 03:54:08;;;;;;;5.37;1.67;;;8.20;99.90;;;;;;5086464;28;20195;-65
2023/10/15 03:56:35;;;;;;;8.27;2.20;;;8.20;99.90;;;;;;5086207;28;20301;-65
2023/10/15 03:59:03;;;;;;;4.67;1.60;;;8.20;99.90;;;;;;5086026;28;20305;-65
2023/10/15 04:01:31;;;;;;;8.77;2.20;;;8.10;99.90;;;;;;5085945;28;20238;-65
2023/10/15 04:04:02;;;;;;;7.37;2.13;;;8.20;99.90;;;;;;5095500;28;20216;-66
2023/10/15 04:06:29;;;;;;;8.13;1.90;;;8.20;99.90;;;;;;5106715;28;20198;-65
2023/10/15 04:09:10;;;;;;;7.27;1.97;;;8.10;99.90;;;;;;5106191;28;20230;-65
2023/10/15 04:11:43;;;;;;;9.07;2.40;;;8.10;99.90;;;;;;5106318;28;20197;-65
2023/10/15 04:14:13;;;;;;;8.73;2.20;;;8.10;99.90;;;;;;5106209;28;20198;-65
2023/10/15 04:16:43;;;;;;;8.57;1.97;;;8.20;99.90;;;;;;5106520;28;20296;-65
2023/10/15 04:19:10;;;;;;;9.53;1.80;;;8.20;99.90;;;;;;5106377;28;20206;-65
2023/10/15 04:21:39;;;;;;;5.10;1.67;;;8.10;99.90;;;;;;5106627;28;20293;-65
2023/10/15 04:24:07;;;;;;;4.73;1.80;;;8.10;99.90;;;;;;5106524;28;20206;-65
2023/10/15 04:26:40;;;;;;;7.10;1.83;;;8.10;99.90;;;;;;5106464;28;20202;-65
2023/10/15 04:29:16;;;;;;;6.70;1.90;;;8.10;99.90;;;;;;5106671;28;20186;-65
2023/10/15 04:31:57;;;;;;;8.37;2.00;;;8.00;99.90;;;;;;5106356;28;20197;-65
2023/10/15 04:34:28;;;;;;;8.83;2.47;;;8.10;99.90;;;;;;5106313;28;20194;-65
2023/10/15 04:36:57;;;;;;;9.13;2.20;;;8.10;99.90;;;;;;5105702;28;20238;-65
2023/10/15 04:39:24;;;;;;;5.03;1.53;;;8.00;99.90;;;;;;5106231;28;20565;-65
2023/10/15 04:41:51;;;;;;;7.87;2.07;;;8.00;99.90;;;;;;5105874;28;20293;-65
2023/10/15 04:44:24;;;;;;;6.77;1.83;;;7.90;99.90;;;;;;5099302;28;20239;-65
2023/10/15 04:46:55;;;;;;;6.03;1.70;;;7.80;99.90;;;;;;5085209;28;20228;-65
2023/10/15 04:49:23;;;;;;;8.07;2.17;;;7.80;99.90;;;;;;5085022;28;20195;-65
2023/10/15 04:51:52;;;;;;;4.80;1.50;;;7.80;99.90;;;;;;5085797;28;20210;-66
2023/10/15 04:54:23;;;;;;;6.73;1.67;;;7.80;99.90;;;;;;5085891;28;20202;-65
2023/10/15 04:56:50;;;;;;;9.00;2.00;;;7.70;99.90;;;;;;5085818;28;20542;-65
2023/10/15 04:59:18;;;;;;;6.63;1.80;;;7.60;99.90;;;;;;5085920;28;20297;-65
2023/10/15 05:01:46;;;;;;;8.73;2.03;;;7.70;99.90;;;;;;5085133;28;20210;-65
2023/10/15 05:04:14;;;;;;;9.20;2.20;;;7.70;99.90;;;;;;5085619;28;20214;-65
2023/10/15 05:06:41;;;;;;;6.03;1.93;;;7.70;99.90;;;;;;5085793;28;20238;-65
2023/10/15 05:09:15;;;;;;;8.43;2.07;;;7.70;99.90;;;;;;5099223;28;20258;-65
2023/10/15 05:11:43;;;;;;;6.03;1.93;;;7.60;99.90;;;;;;5105364;28;20205;-65
2023/10/15 05:14:11;;;;;;;3.97;1.40;;;7.60;99.90;;;;;;5105618;28;20209;-65
2023/10/15 05:16:38;;;;;;;6.23;2.00;;;7.50;99.90;;;;;;5105410;28;20234;-65
2023/10/15 05:19:06;;;;;;;9.30;2.20;;;7.50;99.90;;;;;;5105258;28;20315;-65
2023/10/15 05:21:35;;;;;;;6.40;1.63;;;7.40;99.90;;;;;;5105554;28;20206;-65
2023/10/15 05:24:03;;;;;;;5.40;1.97;;;7.40;99.90;;;;;;5105355;28;20982;-66
2023/10/15 05:26:30;;;;;;;7.27;2.10;;;7.40;99.90;;;;;;5105277;28;20567;-65
2023/10/15 05:28:56;;;;;;;7.27;2.10;;;7.50;99.90;;;;;;5085187;28;20203;-65
2023/10/15 05:31:23;;;;;;;6.30;1.90;;;7.50;99.90;;;;;;5085564;28;20203;-65
2023/10/15 05:33:51;;;;;;;4.97;1.90;;;7.50;99.90;;;;;;5085408;28;20688;-65
2023/10/15 05:36:18;;;;;;;6.03;1.87;;;7.40;99.90;;;;;;5085103;28;20238;-65
2023/10/15 05:38:46;;;;;;;5.13;1.93;;;7.40;99.90;;;;;;5085747;28;20318;-65
2023/10/15 05:41:13;;;;;;;7.07;1.90;;;7.50;99.90;;;;;;5096896;28;20293;-66
2023/10/15 05:43:43;;;;;;;6.43;1.90;;;7.50;99.90;;;;;;5105406;28;20210;-66
2023/10/15 05:46:10;;;;;;;5.00;1.70;;;7.50;99.90;;;;;;5105359;28;20245;-66
2023/10/15 05:48:37;;;;;;;8.60;1.97;;;7.50;99.90;;;;;;5105266;28;20288;-66
2023/10/15 05:51:04;;;;;;;8.83;2.00;;;7.50;99.90;;;;;;5105176;28;20237;-66
2023/10/15 05:53:32;;;;;;;5.30;2.03;;;7.50;99.90;;;;;;5105464;28;20296;-67
2023/10/15 05:56:00;;;;;;;7.33;2.10;;;7.50;99.90;;;;;;5099288;28;20238;-66
2023/10/15 05:58:27;;;;;;;5.60;1.70;;;7.50;99.90;;;;;;5084081;28;20215;-66
2023/10/15 06:00:54;;;;;;;6.80;1.80;;;7.60;99.90;;;;;;5083926;28;20306;-66
2023/10/15 06:03:21;;;;;;;7.13;2.70;;;7.50;99.90;;;;;;5084814;28;20298;-66
2023/10/15 06:05:48;;;;;;;5.57;1.73;;;7.50;99.90;;;;;;5102433;28;21126;-66
2023/10/15 06:08:15;;;;;;;6.17;2.00;;;7.60;99.90;;;;;;5105425;28;20691;-66
2023/10/15 06:10:42;;;;;;;5.83;2.10;;;7.60;99.90;;;;;;5105478;28;20293;-66
2023/10/15 06:13:10;;;;;;;5.40;2.00;;;7.60;99.90;;;;;;5105908;28;20213;-66
2023/10/15 06:15:37;;;;;;;3.70;1.90;;;7.50;99.90;;;;;;5107685;28;20230;-65
2023/10/15 06:18:04;;;;;;;4.03;1.60;;;7.60;99.90;;;;;;5088207;28;20297;-66
2023/10/15 06:20:31;;;;;;;4.33;1.60;;;7.60;99.90;;;;;;5088838;28;20250;-65
2023/10/15 06:23:03;;;;;;;5.77;1.87;;;7.60;99.90;;;;;;5088561;28;20297;-66
2023/10/15 06:25:31;;;;;;;7.33;1.90;;;7.60;99.90;;;;;;5088187;28;20259;-66
2023/10/15 06:27:57;;;;;;;10.67;2.00;;;7.50;99.90;;;;;;5087884;28;20299;-65
2023/10/15 06:30:26;;;;;;;7.73;2.07;;;7.60;99.90;;;;;;5088269;28;20290;-65
2023/10/15 06:32:53;;;;;;;5.90;1.77;;;7.60;99.90;;;;;;5087930;28;20210;-65
2023/10/15 06:35:21;;;;;;;5.93;1.93;;;7.60;99.90;;;;;;5087755;28;20337;-67
2023/10/15 06:37:49;;;;;;;8.77;1.80;;;7.60;99.90;;;;;;5087849;28;20293;-66
2023/10/15 06:40:16;;;;;;;4.90;1.50;;;7.60;99.90;;;;;;5087771;28;20210;-67
2023/10/15 06:42:44;;;;;;;7.10;1.70;;;7.70;99.90;;;;;;5087869;28;20669;-67
2023/10/15 06:45:11;;;;;;;5.23;1.80;;;7.70;99.90;;;;;;5095681;28;20752;-66
2023/10/15 06:47:40;;;;;;;7.87;1.80;;;7.70;99.90;;;;;;5108050;28;20295;-66
2023/10/15 06:50:07;;;;;;;7.07;1.77;;;7.70;99.90;;;;;;5108052;28;20206;-66
2023/10/15 06:52:38;;;;;;;5.93;2.20;;;7.80;99.90;;;;;;5099309;28;20250;-66
2023/10/15 06:55:07;;;;;;;5.57;1.80;;;7.80;99.90;;;;;;5087787;28;20235;-66
2023/10/15 06:57:34;;;;;;;4.10;1.70;;;7.80;99.90;;;;;;5087445;28;20732;-67
2023/10/15 07:00:01;;;;;;;4.47;1.47;;;7.90;99.90;;;;;;5087786;28;20213;-66
2023/10/15 07:02:28;;;;;;;5.80;1.90;;;7.90;99.90;;;;;;5107818;28;20210;-67
2023/10/15 07:04:57;;;;;;;5.93;1.77;;;8.00;99.90;;;;;;5107998;28;20235;-67
2023/10/15 07:07:25;;;;;;;3.60;1.63;;;8.00;99.90;;;;;;5107684;28;20317;-66
2023/10/15 07:09:53;;;;;;;5.87;1.80;;;8.00;99.90;;;;;;5107296;28;20934;-67
2023/10/15 07:12:20;;;;;;;7.07;1.83;;;8.00;99.90;;;;;;5107585;28;20221;-66
2023/10/15 07:14:47;;;;;;;8.93;2.17;;;8.10;99.90;;;;;;5107226;28;20652;-67
2023/10/15 07:17:14;;;;;;;6.30;1.80;;;8.20;99.90;;;;;;5106816;28;20326;-66
2023/10/15 07:19:41;;;;;;;7.90;1.70;;;8.30;99.90;;;;;;5107278;28;20289;-66
2023/10/15 07:22:10;;;;;;;5.13;1.70;;;8.20;99.90;;;;;;5107745;28;20545;-66
2023/10/15 07:24:37;;;;;;;5.90;1.50;;;8.20;99.90;;;;;;5107321;28;20210;-66
2023/10/15 07:27:04;;;;;;;9.30;1.73;;;8.30;99.90;;;;;;5090798;28;20710;-66
2023/10/15 07:29:31;;;;;;;4.33;1.70;;;8.40;99.90;;;;;;5086665;28;20207;-66
2023/10/15 07:31:59;;;;;;;6.83;1.97;;;8.40;99.90;;;;;;5086441;28;20678;-66
2023/10/15 07:34:26;;;;;;;3.60;2.10;;;8.50;99.90;;;;;;5104352;28;20263;-66
2023/10/15 07:36:55;;;;;;;3.80;1.97;;;8.60;99.90;;;;;;5106633;28;20241;-66
2023/10/15 07:39:23;;;;;;;6.47;1.80;;;8.60;99.90;;;;;;5107424;28;20225;-66
2023/10/15 07:41:51;;;;;;;7.07;2.00;;;8.60;99.90;;;;;;5096038;28;20214;-66
2023/10/15 07:44:18;;;;;;;6.37;2.07;;;8.60;99.90;;;;;;5086953;28;20255;-66
2023/10/15 07:46:46;;;;;;;7.20;1.80;;;8.80;99.90;;;;;;5097231;28;20209;-66
2023/10/15 07:49:14;;;;;;;4.33;1.70;;;8.70;99.90;;;;;;5094651;28;20256;-66
2023/10/15 07:51:41;;;;;;;6.30;2.10;;;8.90;99.90;;;;;;5086407;28;20206;-66
2023/10/15 07:54:08;;;;;;;5.13;1.80;;;9.00;99.90;;;;;;5086641;28;20567;-66
2023/10/15 07:56:36;;;;;;;5.13;1.97;;;9.10;99.90;;;;;;5089341;28;20317;-66
2023/10/15 07:59:07;;;;;;;5.37;1.50;;;9.10;99.90;;;;;;5107282;28;20304;-66
2023/10/15 08:01:36;;;;;;;6.37;1.70;;;9.20;99.90;;;;;;5107198;28;20194;-66
2023/10/15 08:04:04;;;;;;;4.17;1.40;;;9.10;99.90;;;;;;5106935;28;20206;-66
2023/10/15 08:06:31;;;;;;;4.43;1.40;;;9.10;99.90;;;;;;5106738;28;20293;-66
2023/10/15 08:08:57;;;;;;;3.17;1.50;;;9.10;99.90;;;;;;5106864;27;20210;-66
2023/10/15 08:11:24;;;;;;;4.77;1.30;;;9.00;99.90;;;;;;5106962;28;20224;-66
2023/10/15 08:13:53;;;;;;;4.53;1.97;;;9.10;99.90;;;;;;5106693;28;20287;-66
2023/10/15 08:16:20;;;;;;;2.03;1.10;;;9.10;99.90;;;;;;5106127;28;20229;-66
2023/10/15 08:18:47;;;;;;;2.83;1.10;;;9.00;99.90;;;;;;5106742;28;20291;-66
2023/10/15 08:21:14;;;;;;;2.57;1.10;;;9.00;99.90;;;;;;5106443;28;20206;-66
2023/10/15 08:23:42;;;;;;;4.57;1.30;;;9.00;99.90;;;;;;5106350;28;20206;-66
2023/10/15 08:26:10;;;;;;;3.43;0.97;;;9.10;99.90;;;;;;5106113;28;20283;-66
2023/10/15 08:28:37;;;;;;;2.43;0.80;;;9.10;99.90;;;;;;5105992;28;20248;-66
2023/10/15 08:31:06;;;;;;;4.93;1.47;;;9.10;99.90;;;;;;5085436;28;20234;-66
2023/10/15 08:33:33;;;;;;;3.07;1.10;;;9.20;99.90;;;;;;5085784;28;20335;-66
2023/10/15 08:36:02;;;;;;;3.93;1.37;;;9.30;99.90;;;;;;5084934;28;20301;-66
2023/10/15 08:38:29;;;;;;;2.23;0.90;;;9.30;99.90;;;;;;5085759;28;20202;-66
2023/10/15 08:40:58;;;;;;;1.93;1.10;;;9.30;99.90;;;;;;5085838;28;20234;-66
2023/10/15 08:43:27;;;;;;;3.43;1.10;;;9.30;99.90;;;;;;5085674;28;20237;-66
2023/10/15 08:45:56;;;;;;;3.10;1.10;;;9.50;99.90;;;;;;5088683;28;20218;-66
2023/10/15 08:48:26;;;;;;;1.43;1.20;;;9.60;99.90;;;;;;5105220;28;20209;-66
2023/10/15 08:50:55;;;;;;;3.27;0.97;;;9.60;99.90;;;;;;5105371;28;20248;-66
2023/10/15 08:53:23;;;;;;;3.77;1.20;;;9.90;99.90;;;;;;5098008;28;20298;-66
2023/10/15 08:55:51;;;;;;;3.87;1.30;;;10.00;99.90;;;;;;5085262;28;20302;-66
2023/10/15 08:58:21;;;;;;;2.70;0.90;;;10.20;99.90;;;;;;5085296;28;20216;-66
2023/10/15 09:00:49;;;;;;;3.43;0.83;;;10.20;99.90;;;;;;5085114;28;20211;-66
2023/10/15 09:03:17;;;;;;;2.67;1.20;;;10.40;99.90;;;;;;5084683;28;20219;-66
2023/10/15 09:05:45;;;;;;;3.07;1.10;;;10.50;99.90;;;;;;5085285;28;20213;-66
2023/10/15 09:08:14;;;;;;;2.80;1.00;;;10.60;99.90;;;;;;5085012;28;20283;-66
2023/10/15 09:10:41;;;;;;;2.87;1.10;;;10.70;99.90;;;;;;5085246;28;20230;-66
2023/10/15 09:13:14;;;;;;;3.40;1.17;;;10.70;99.90;;;;;;5085074;28;20941;-66
2023/10/15 09:15:43;;;;;;;2.10;0.83;;;10.50;99.90;;;;;;5087067;28;20278;-66
2023/10/15 09:18:11;;;;;;;2.97;1.27;;;10.30;99.90;;;;;;5105099;28;20206;-66
2023/10/15 09:20:42;;;;;;;3.50;1.10;;;10.30;99.90;;;;;;5105648;28;20209;-66
2023/10/15 09:23:11;;;;;;;2.47;0.97;;;10.30;99.90;;;;;;5105017;28;20721;-66
2023/10/15 09:25:38;;;;;;;2.40;0.93;;;10.30;99.90;;;;;;5098218;28;20287;-66
2023/10/15 09:28:05;;;;;;;2.83;0.97;;;10.30;99.90;;;;;;5085271;28;20310;-67
2023/10/15 09:30:32;;;;;;;2.10;1.00;;;10.30;99.90;;;;;;5085439;28;20198;-66
2023/10/15 09:32:59;;;;;;;1.37;0.77;;;10.20;99.90;;;;;;5084945;28;20305;-66
2023/10/15 09:35:28;;;;;;;2.30;0.87;;;10.10;99.90;;;;;;5105403;28;20338;-66
2023/10/15 09:37:57;;;;;;;1.67;0.83;;;9.90;99.90;;;;;;5105002;28;20333;-66
2023/10/15 09:40:31;;;;;;;2.20;1.13;;;9.80;99.90;;;;;;5105085;28;21055;-66
2023/10/15 09:42:59;;;;;;;3.70;1.10;;;9.90;99.90;;;;;;5105060;28;20587;-66
2023/10/15 09:45:26;;;;;;;3.07;1.10;;;10.00;99.90;;;;;;5105633;28;20221;-66
2023/10/15 09:47:57;;;;;;;1.70;1.10;;;10.00;99.90;;;;;;5106563;28;20241;-66
2023/10/15 09:50:27;;;;;;;1.83;0.90;;;10.10;99.90;;;;;;5109529;28;20198;-66
2023/10/15 09:52:57;;;;;;;1.83;0.60;;;10.20;99.90;;;;;;5109104;28;20739;-66
2023/10/15 09:55:28;;;;;;;1.17;0.80;;;10.30;99.90;;;;;;5109225;28;20290;-66
2023/10/15 09:57:56;;;;;;;2.53;2.33;;;10.70;99.90;;;;;;5108748;28;20332;-66
2023/10/15 10:00:46;;;;;;;1.83;1.33;;;10.70;99.90;;;;;;5109256;28;20567;-66
2023/10/15 10:03:47;;;;;;;2.93;0.87;;;10.70;99.90;;;;;;5108910;28;20217;-66
2023/10/15 10:06:24;;;;;;;1.67;0.90;;;10.60;99.90;;;;;;5109164;28;20217;-66
2023/10/15 10:09:16;;;;;;;1.97;0.80;;;10.40;99.90;;;;;;5108804;28;20573;-66
2023/10/15 10:11:55;;;;;;;3.23;0.97;;;10.40;99.90;;;;;;5108471;27;20202;-66
2023/10/15 10:14:36;;;;;;;3.17;0.93;;;10.40;99.90;;;;;;5108710;28;20221;-67
2023/10/15 10:17:04;;;;;;;2.03;0.70;;;10.50;99.90;;;;;;5108195;28;20313;-66
2023/10/15 10:19:31;;;;;;;3.80;0.90;;;10.50;99.90;;;;;;5108686;28;20233;-66
2023/10/15 10:21:58;;;;;;;4.30;0.83;;;10.50;99.90;;;;;;5101077;28;20209;-66
2023/10/15 10:24:40;;;;;;;3.40;0.90;;;10.50;99.90;;;;;;5088179;28;20260;-66
2023/10/15 10:27:15;;;;;;;2.30;1.00;;;10.60;99.90;;;;;;5088054;28;20282;-66
2023/10/15 10:29:42;;;;;;;2.17;0.77;;;10.80;99.90;;;;;;5091377;28;20709;-66
2023/10/15 10:32:11;;;;;;;3.30;0.60;;;10.80;99.90;;;;;;5108037;28;20297;-66
2023/10/15 10:34:38;;;;;;;1.17;0.60;;;10.70;99.90;;;;;;5108493;28;20588;-66
2023/10/15 10:37:20;;;;;;;1.57;1.00;;;10.60;99.90;;;;;;5103587;28;20335;-66
2023/10/15 10:39:49;;;;;;;1.13;0.80;;;10.50;99.90;;;;;;5088337;28;20202;-66
2023/10/15 10:42:28;;;;;;;1.23;0.73;;;10.50;99.90;;;;;;5087759;28;20211;-66
2023/10/15 10:44:57;;;;;;;2.50;0.80;;;10.30;99.90;;;;;;5087933;28;20191;-66
2023/10/15 10:47:29;;;;;;;1.47;0.90;;;10.30;99.90;;;;;;5107589;28;20263;-66
2023/10/15 10:49:59;;;;;;;1.67;0.63;;;10.30;99.90;;;;;;5108445;28;20273;-66
2023/10/15 10:52:33;;;;;;;1.50;0.93;;;10.40;99.90;;;;;;5108566;28;20202;-66
2023/10/15 10:55:31;;;;;;;0.90;0.77;;;10.30;99.90;;;;;;5108254;28;20198;-66
2023/10/15 10:58:03;;;;;;;2.47;1.07;;;10.30;99.90;;;;;;5108187;28;20218;-66
2023/10/15 11:00:31;;;;;;;1.53;0.90;;;10.40;99.90;;;;;;5107587;28;20317;-66
2023/10/15 11:03:01;;;;;;;0.87;0.80;;;10.50;99.90;;;;;;5108031;28;20215;-66
2023/10/15 11:05:29;;;;;;;0.83;0.83;;;10.80;99.90;;;;;;5107958;28;20221;-66
2023/10/15 11:07:56;;;;;;;1.23;0.80;;;11.00;99.90;;;;;;5107903;27;20233;-66
2023/10/15 11:10:23;;;;;;;4.83;1.07;;;11.20;99.90;;;;;;5107361;27;20297;-67
2023/10/15 11:12:50;;;;;;;1.20;0.60;;;11.40;99.90;;;;;;5107496;28;20305;-66
2023/10/15 11:15:20;;;;;;;1.23;0.70;;;11.60;99.90;;;;;;5107645;28;20974;-66
2023/10/15 11:17:56;;;;;;;0.50;0.50;;;11.70;99.90;;;;;;5103468;28;20262;-66
2023/10/15 11:20:27;;;;;;;1.90;0.97;;;11.60;99.90;;;;;;5087179;28;20289;-67
2023/10/15 11:22:54;;;;;;;0.57;0.57;;;11.50;99.90;;;;;;5087207;28;20201;-67
2023/10/15 11:25:23;;;;;;;1.40;0.50;;;11.30;99.90;;;;;;5086823;28;20207;-66
2023/10/15 11:27:51;;;;;;;0.73;0.60;;;11.00;99.90;;;;;;5106350;28;20576;-66
2023/10/15 11:30:20;;;;;;;0.97;0.60;;;10.90;99.90;;;;;;5107463;28;20301;-66
2023/10/15 11:32:51;;;;;;;2.10;1.10;;;10.90;99.90;;;;;;5107034;28;20587;-66
2023/10/15 11:35:19;;;;;;;1.57;0.90;;;10.90;99.90;;;;;;5086732;28;20249;-67
2023/10/15 11:37:50;;;;;;;1.13;0.60;;;10.90;99.90;;;;;;5086905;28;20238;-66
2023/10/15 11:40:17;;;;;;;2.23;0.57;;;10.70;99.90;;;;;;5086337;28;20794;-66
2023/10/15 11:42:48;;;;;;;2.37;1.00;;;10.70;99.90;;;;;;5099049;28;20214;-66
2023/10/15 11:45:25;;;;;;;2.30;0.90;;;11.00;99.90;;;;;;5106739;28;20279;-66
2023/10/15 11:47:55;;;;;;;1.37;0.70;;;11.30;99.90;;;;;;5106689;28;20205;-66
2023/10/15 11:50:24;;;;;;;0.97;0.80;;;11.40;99.90;;;;;;5106545;28;20216;-66
2023/10/15 11:52:52;;;;;;;1.30;0.83;;;11.20;99.90;;;;;;5106665;28;20305;-66
2023/10/15 11:55:22;;;;;;;1.30;0.90;;;11.30;99.90;;;;;;5106757;28;20220;-66
2023/10/15 11:57:50;;;;;;;4.57;2.27;;;11.10;99.90;;;;;;5106486;28;20340;-66
2023/10/15 12:00:31;;;;;;;3.93;2.63;;;11.10;99.90;;;;;;5106546;28;20213;-66
2023/10/15 12:03:00;;;;;;;7.03;3.90;;;11.00;99.90;;;;;;5085929;28;20809;-66
2023/10/15 12:05:31;;;;;;;3.97;2.50;;;11.10;99.90;;;;;;5086569;28;20206;-66
2023/10/15 12:07:59;;;;;;;1.00;0.70;;;11.30;99.90;;;;;;5086056;28;20234;-66
2023/10/15 12:10:26;;;;;;;1.47;0.70;;;11.80;99.90;;;;;;5085725;28;20768;-66
2023/10/15 12:12:53;;;;;;;1.63;1.10;;;12.00;99.90;;;;;;5085813;28;20943;-66
2023/10/15 12:15:19;;;;;;;1.73;0.80;;;12.30;99.90;;;;;;5100180;28;20714;-66
2023/10/15 12:17:46;;;;;;;0.70;0.50;;;12.70;99.90;;;;;;5105843;27;20225;-66
2023/10/15 12:20:17;;;;;;;2.00;0.90;;;12.40;99.90;;;;;;5106544;28;20317;-66
2023/10/15 12:22:44;;;;;;;1.43;0.60;;;12.40;99.90;;;;;;5106270;28;20209;-66
2023/10/15 12:25:11;;;;;;;1.03;0.70;;;12.50;99.90;;;;;;5105503;28;20668;-66
2023/10/15 12:27:38;;;;;;;2.60;0.53;;;12.70;99.90;;;;;;5085641;28;20699;-66
2023/10/15 12:30:12;;;;;;;1.70;0.73;;;12.40;99.90;;;;;;5085695;28;20588;-66
2023/10/15 12:32:39;;;;;;;0.43;0.40;;;12.60;99.90;;;;;;5085443;28;21074;-66
2023/10/15 12:35:11;;;;;;;0.63;0.30;;;12.70;99.90;;;;;;5085481;28;20292;-66
2023/10/15 12:37:39;;;;;;;0.47;0.40;;;13.00;99.90;;;;;;5085714;28;20696;-67
2023/10/15 12:40:12;;;;;;;0.93;0.67;;;13.40;99.90;;;;;;5085990;28;20206;-67
2023/10/15 12:42:40;;;;;;;1.93;0.60;;;13.40;99.90;;;;;;5086002;28;20199;-66
2023/10/15 12:45:10;;;;;;;2.30;0.80;;;13.20;99.90;;;;;;5085909;28;20328;-67
2023/10/15 12:47:39;;;;;;;0.70;0.60;;;12.90;99.90;;;;;;5085756;28;20206;-67
2023/10/15 12:50:07;;;;;;;1.60;1.43;;;12.60;99.90;;;;;;5086075;28;20282;-66
2023/10/15 12:52:35;;;;;;;7.33;3.23;;;12.10;99.90;;;;;;5085716;28;20213;-67
2023/10/15 12:55:07;;;;;;;0.97;0.77;;;11.90;99.90;;;;;;5085334;28;20211;-66
2023/10/15 12:57:34;;;;;;;1.80;0.63;;;11.70;99.90;;;;;;5094044;28;20248;-66
2023/10/15 13:00:04;;;;;;;0.80;0.60;;;11.80;99.90;;;;;;5106072;28;20289;-66
2023/10/15 13:02:32;;;;;;;2.03;0.40;;;11.90;99.90;;;;;;5105642;28;20421;-67
2023/10/15 13:04:58;;;;;;;2.20;0.70;;;12.00;99.90;;;;;;5106030;28;20301;-66
2023/10/15 13:07:25;;;;;;;1.17;0.90;;;11.80;99.90;;;;;;5105564;28;20322;-66